Marldon, United Kingdom
Current Conditions -  °F | °C
As of 12:20 PM on Monday 26 Jan 2015 (Local Time) from EGTE Reporting Station
Scattered Clouds Scattered Clouds  
Wind Chill: 41°   Ceiling: Unl
Heat Index: 48°   Visibility: 6mi
Dew Point: 37°   Wind: 21mph
Humidity: 66%   Direction: 330°NNW
Pressure: 30.3"   Gusts: NA
Location:  50.46°N, 3.6°W
Report Text: EGTE 261220Z 33018KT 310V010 9999 SCT025 09/03 Q1026
Loading
Personal Weather Stations






























Interactive Weather Map New forecast layout! Learn more

10-Day Weather Forecast

Advertisements
Track Severe Weather on mobile